sensor_id;sensor_type;location;lat;lon;timestamp;P1;durP1;ratioP1;P2;durP2;ratioP2
8466;SDS011;4270;48.148;11.648;2023-03-31T00:01:50;9.30;;;4.70;;
8466;SDS011;4270;48.148;11.648;2023-03-31T00:04:16;6.30;;;4.33;;
8466;SDS011;4270;48.148;11.648;2023-03-31T00:06:42;8.20;;;5.40;;
8466;SDS011;4270;48.148;11.648;2023-03-31T00:09:08;8.87;;;4.70;;
8466;SDS011;4270;48.148;11.648;2023-03-31T00:11:34;4.50;;;3.90;;
8466;SDS011;4270;48.148;11.648;2023-03-31T00:13:59;7.30;;;5.30;;
8466;SDS011;4270;48.148;11.648;2023-03-31T00:16:25;6.80;;;5.33;;
8466;SDS011;4270;48.148;11.648;2023-03-31T00:18:50;8.17;;;4.43;;
8466;SDS011;4270;48.148;11.648;2023-03-31T00:21:16;5.67;;;4.67;;
8466;SDS011;4270;48.148;11.648;2023-03-31T00:23:54;6.60;;;4.73;;
8466;SDS011;4270;48.148;11.648;2023-03-31T00:26:20;8.90;;;4.83;;
8466;SDS011;4270;48.148;11.648;2023-03-31T00:28:46;8.73;;;5.10;;
8466;SDS011;4270;48.148;11.648;2023-03-31T00:31:11;9.33;;;4.70;;
8466;SDS011;4270;48.148;11.648;2023-03-31T00:33:36;7.18;;;5.70;;
8466;SDS011;4270;48.148;11.648;2023-03-31T00:36:02;9.37;;;5.00;;
8466;SDS011;4270;48.148;11.648;2023-03-31T00:38:30;6.90;;;4.90;;
8466;SDS011;4270;48.148;11.648;2023-03-31T00:40:55;7.13;;;5.00;;
8466;SDS011;4270;48.148;11.648;2023-03-31T00:43:28;7.17;;;4.80;;
8466;SDS011;4270;48.148;11.648;2023-03-31T00:45:54;6.77;;;5.47;;
8466;SDS011;4270;48.148;11.648;2023-03-31T00:48:19;7.23;;;5.23;;
8466;SDS011;4270;48.148;11.648;2023-03-31T00:50:53;5.87;;;4.53;;
8466;SDS011;4270;48.148;11.648;2023-03-31T00:53:19;9.13;;;4.60;;
8466;SDS011;4270;48.148;11.648;2023-03-31T00:55:48;9.03;;;5.57;;
8466;SDS011;4270;48.148;11.648;2023-03-31T00:58:14;8.83;;;5.10;;
8466;SDS011;4270;48.148;11.648;2023-03-31T01:00:44;11.87;;;5.37;;
8466;SDS011;4270;48.148;11.648;2023-03-31T01:03:09;7.30;;;5.40;;
8466;SDS011;4270;48.148;11.648;2023-03-31T01:05:37;8.27;;;4.97;;
8466;SDS011;4270;48.148;11.648;2023-03-31T01:08:03;10.23;;;7.00;;
8466;SDS011;4270;48.148;11.648;2023-03-31T01:10:29;8.33;;;5.53;;
8466;SDS011;4270;48.148;11.648;2023-03-31T01:12:57;8.90;;;5.67;;
8466;SDS011;4270;48.148;11.648;2023-03-31T01:15:22;5.93;;;5.23;;
8466;SDS011;4270;48.148;11.648;2023-03-31T01:17:48;6.07;;;5.27;;
8466;SDS011;4270;48.148;11.648;2023-03-31T01:28:04;9.40;;;5.22;;
8466;SDS011;4270;48.148;11.648;2023-03-31T01:30:36;7.17;;;5.40;;
8466;SDS011;4270;48.148;11.648;2023-03-31T01:40:53;6.03;;;5.43;;
8466;SDS011;4270;48.148;11.648;2023-03-31T01:46:27;15.10;;;5.13;;
8466;SDS011;4270;48.148;11.648;2023-03-31T01:49:00;6.93;;;5.17;;
8466;SDS011;4270;48.148;11.648;2023-03-31T01:56:48;8.10;;;5.60;;
8466;SDS011;4270;48.148;11.648;2023-03-31T01:59:17;7.73;;;5.40;;
8466;SDS011;4270;48.148;11.648;2023-03-31T02:01:49;13.60;;;5.80;;
8466;SDS011;4270;48.148;11.648;2023-03-31T02:04:17;7.43;;;5.67;;
8466;SDS011;4270;48.148;11.648;2023-03-31T02:06:44;7.77;;;5.40;;
8466;SDS011;4270;48.148;11.648;2023-03-31T02:09:15;6.43;;;5.20;;
8466;SDS011;4270;48.148;11.648;2023-03-31T02:11:41;8.90;;;5.23;;
8466;SDS011;4270;48.148;11.648;2023-03-31T02:14:08;6.80;;;4.83;;
8466;SDS011;4270;48.148;11.648;2023-03-31T02:16:35;12.07;;;5.60;;
8466;SDS011;4270;48.148;11.648;2023-03-31T02:19:02;7.30;;;5.70;;
8466;SDS011;4270;48.148;11.648;2023-03-31T02:21:33;8.33;;;5.40;;
8466;SDS011;4270;48.148;11.648;2023-03-31T02:24:01;6.50;;;5.20;;
8466;SDS011;4270;48.148;11.648;2023-03-31T02:26:29;6.73;;;5.30;;
8466;SDS011;4270;48.148;11.648;2023-03-31T02:28:55;7.30;;;5.00;;
8466;SDS011;4270;48.148;11.648;2023-03-31T02:34:04;8.17;;;5.47;;
8466;SDS011;4270;48.148;11.648;2023-03-31T02:36:29;7.57;;;5.73;;
8466;SDS011;4270;48.148;11.648;2023-03-31T02:39:37;8.50;;;6.20;;
8466;SDS011;4270;48.148;11.648;2023-03-31T02:41:43;8.17;;;5.20;;
8466;SDS011;4270;48.148;11.648;2023-03-31T02:44:09;7.50;;;5.23;;
8466;SDS011;4270;48.148;11.648;2023-03-31T02:46:35;8.30;;;5.40;;
8466;SDS011;4270;48.148;11.648;2023-03-31T02:49:00;8.90;;;6.40;;
8466;SDS011;4270;48.148;11.648;2023-03-31T02:51:29;7.30;;;5.23;;
8466;SDS011;4270;48.148;11.648;2023-03-31T02:54:06;6.50;;;5.10;;
8466;SDS011;4270;48.148;11.648;2023-03-31T02:59:14;9.17;;;5.23;;
8466;SDS011;4270;48.148;11.648;2023-03-31T03:01:50;6.73;;;5.10;;
8466;SDS011;4270;48.148;11.648;2023-03-31T03:06:58;10.97;;;5.00;;
8466;SDS011;4270;48.148;11.648;2023-03-31T03:12:05;11.40;;;6.17;;
8466;SDS011;4270;48.148;11.648;2023-03-31T03:16:58;7.70;;;5.60;;
8466;SDS011;4270;48.148;11.648;2023-03-31T03:19:24;8.20;;;5.57;;
8466;SDS011;4270;48.148;11.648;2023-03-31T03:21:49;7.70;;;6.20;;
8466;SDS011;4270;48.148;11.648;2023-03-31T03:24:15;14.30;;;5.67;;
8466;SDS011;4270;48.148;11.648;2023-03-31T03:26:41;9.10;;;6.33;;
8466;SDS011;4270;48.148;11.648;2023-03-31T03:29:08;9.70;;;5.80;;
8466;SDS011;4270;48.148;11.648;2023-03-31T03:31:33;8.80;;;5.93;;
8466;SDS011;4270;48.148;11.648;2023-03-31T03:33:59;9.27;;;5.60;;
8466;SDS011;4270;48.148;11.648;2023-03-31T03:36:24;11.00;;;6.03;;
8466;SDS011;4270;48.148;11.648;2023-03-31T03:38:50;8.73;;;6.10;;
8466;SDS011;4270;48.148;11.648;2023-03-31T03:41:15;10.50;;;6.10;;
8466;SDS011;4270;48.148;11.648;2023-03-31T03:43:40;9.77;;;5.37;;
8466;SDS011;4270;48.148;11.648;2023-03-31T03:46:05;8.07;;;6.43;;
8466;SDS011;4270;48.148;11.648;2023-03-31T03:48:30;17.20;;;6.38;;
8466;SDS011;4270;48.148;11.648;2023-03-31T03:50:57;8.57;;;5.57;;
8466;SDS011;4270;48.148;11.648;2023-03-31T03:53:23;9.93;;;6.33;;
8466;SDS011;4270;48.148;11.648;2023-03-31T03:55:48;10.60;;;6.88;;
8466;SDS011;4270;48.148;11.648;2023-03-31T03:58:14;10.17;;;7.00;;
8466;SDS011;4270;48.148;11.648;2023-03-31T04:00:39;13.17;;;5.93;;
8466;SDS011;4270;48.148;11.648;2023-03-31T04:03:05;14.63;;;7.10;;
8466;SDS011;4270;48.148;11.648;2023-03-31T04:05:30;14.68;;;6.65;;
8466;SDS011;4270;48.148;11.648;2023-03-31T04:07:55;9.60;;;5.50;;
8466;SDS011;4270;48.148;11.648;2023-03-31T04:10:20;11.00;;;6.70;;
8466;SDS011;4270;48.148;11.648;2023-03-31T04:12:45;10.60;;;6.20;;
8466;SDS011;4270;48.148;11.648;2023-03-31T04:15:11;8.77;;;5.72;;
8466;SDS011;4270;48.148;11.648;2023-03-31T04:17:36;10.83;;;6.33;;
8466;SDS011;4270;48.148;11.648;2023-03-31T04:20:07;10.30;;;6.53;;
8466;SDS011;4270;48.148;11.648;2023-03-31T04:22:34;11.13;;;6.33;;
8466;SDS011;4270;48.148;11.648;2023-03-31T04:25:05;12.37;;;6.27;;
8466;SDS011;4270;48.148;11.648;2023-03-31T04:27:38;12.17;;;6.57;;
8466;SDS011;4270;48.148;11.648;2023-03-31T04:30:11;14.90;;;7.27;;
8466;SDS011;4270;48.148;11.648;2023-03-31T04:32:37;13.50;;;6.60;;
8466;SDS011;4270;48.148;11.648;2023-03-31T04:35:02;14.50;;;8.07;;
8466;SDS011;4270;48.148;11.648;2023-03-31T04:37:28;10.80;;;6.37;;
8466;SDS011;4270;48.148;11.648;2023-03-31T04:39:58;12.07;;;6.67;;
8466;SDS011;4270;48.148;11.648;2023-03-31T04:42:32;12.73;;;6.90;;
8466;SDS011;4270;48.148;11.648;2023-03-31T04:44:57;9.83;;;7.17;;
8466;SDS011;4270;48.148;11.648;2023-03-31T04:47:22;10.20;;;6.25;;
8466;SDS011;4270;48.148;11.648;2023-03-31T04:49:47;13.03;;;6.90;;
8466;SDS011;4270;48.148;11.648;2023-03-31T04:52:13;12.07;;;7.03;;
8466;SDS011;4270;48.148;11.648;2023-03-31T04:54:38;12.43;;;7.13;;
8466;SDS011;4270;48.148;11.648;2023-03-31T04:57:03;12.05;;;7.72;;
8466;SDS011;4270;48.148;11.648;2023-03-31T04:59:28;15.85;;;8.27;;
8466;SDS011;4270;48.148;11.648;2023-03-31T05:01:53;13.77;;;8.10;;
8466;SDS011;4270;48.148;11.648;2023-03-31T05:04:18;13.98;;;8.02;;
8466;SDS011;4270;48.148;11.648;2023-03-31T05:06:43;11.70;;;7.63;;
8466;SDS011;4270;48.148;11.648;2023-03-31T05:09:09;14.33;;;8.47;;
8466;SDS011;4270;48.148;11.648;2023-03-31T05:11:34;14.07;;;9.20;;
8466;SDS011;4270;48.148;11.648;2023-03-31T05:13:59;14.00;;;9.80;;
8466;SDS011;4270;48.148;11.648;2023-03-31T05:16:24;14.80;;;10.33;;
8466;SDS011;4270;48.148;11.648;2023-03-31T05:18:50;14.80;;;8.60;;
8466;SDS011;4270;48.148;11.648;2023-03-31T05:21:16;14.52;;;7.60;;
8466;SDS011;4270;48.148;11.648;2023-03-31T05:23:42;10.40;;;7.90;;
8466;SDS011;4270;48.148;11.648;2023-03-31T05:26:08;24.43;;;9.30;;
8466;SDS011;4270;48.148;11.648;2023-03-31T05:28:33;13.20;;;7.80;;
8466;SDS011;4270;48.148;11.648;2023-03-31T05:30:59;12.93;;;8.47;;
8466;SDS011;4270;48.148;11.648;2023-03-31T05:33:25;14.20;;;8.60;;
8466;SDS011;4270;48.148;11.648;2023-03-31T05:35:50;13.77;;;8.53;;
8466;SDS011;4270;48.148;11.648;2023-03-31T05:38:16;13.00;;;8.67;;
8466;SDS011;4270;48.148;11.648;2023-03-31T05:40:41;11.47;;;8.17;;
8466;SDS011;4270;48.148;11.648;2023-03-31T05:43:06;13.60;;;7.93;;
8466;SDS011;4270;48.148;11.648;2023-03-31T05:45:31;16.08;;;8.73;;
8466;SDS011;4270;48.148;11.648;2023-03-31T05:47:56;14.17;;;8.90;;
8466;SDS011;4270;48.148;11.648;2023-03-31T05:50:21;14.73;;;8.48;;
8466;SDS011;4270;48.148;11.648;2023-03-31T05:52:47;15.48;;;7.70;;
8466;SDS011;4270;48.148;11.648;2023-03-31T05:55:12;13.23;;;8.13;;
8466;SDS011;4270;48.148;11.648;2023-03-31T05:57:37;14.47;;;8.50;;
8466;SDS011;4270;48.148;11.648;2023-03-31T06:00:03;15.80;;;8.43;;
8466;SDS011;4270;48.148;11.648;2023-03-31T06:02:30;16.73;;;9.07;;
8466;SDS011;4270;48.148;11.648;2023-03-31T06:04:57;15.50;;;9.00;;
8466;SDS011;4270;48.148;11.648;2023-03-31T06:07:22;11.67;;;7.60;;
8466;SDS011;4270;48.148;11.648;2023-03-31T06:09:48;11.17;;;7.43;;
8466;SDS011;4270;48.148;11.648;2023-03-31T06:12:14;11.33;;;8.00;;
8466;SDS011;4270;48.148;11.648;2023-03-31T06:14:40;11.60;;;7.40;;
8466;SDS011;4270;48.148;11.648;2023-03-31T06:17:05;10.63;;;7.07;;
8466;SDS011;4270;48.148;11.648;2023-03-31T06:19:30;14.73;;;7.93;;
8466;SDS011;4270;48.148;11.648;2023-03-31T06:21:55;9.17;;;6.77;;
8466;SDS011;4270;48.148;11.648;2023-03-31T06:24:20;8.75;;;6.85;;
8466;SDS011;4270;48.148;11.648;2023-03-31T06:26:45;10.43;;;7.10;;
8466;SDS011;4270;48.148;11.648;2023-03-31T06:29:11;16.65;;;7.00;;
8466;SDS011;4270;48.148;11.648;2023-03-31T06:31:36;9.30;;;6.70;;
8466;SDS011;4270;48.148;11.648;2023-03-31T06:34:01;8.70;;;6.13;;
8466;SDS011;4270;48.148;11.648;2023-03-31T06:36:26;11.85;;;5.93;;
8466;SDS011;4270;48.148;11.648;2023-03-31T06:38:52;8.17;;;5.97;;
8466;SDS011;4270;48.148;11.648;2023-03-31T06:41:17;9.57;;;6.40;;
8466;SDS011;4270;48.148;11.648;2023-03-31T06:43:44;10.30;;;5.80;;
8466;SDS011;4270;48.148;11.648;2023-03-31T06:46:10;7.83;;;5.50;;
8466;SDS011;4270;48.148;11.648;2023-03-31T06:48:35;8.10;;;5.67;;
8466;SDS011;4270;48.148;11.648;2023-03-31T06:51:02;7.27;;;4.90;;
8466;SDS011;4270;48.148;11.648;2023-03-31T06:53:28;9.63;;;4.80;;
8466;SDS011;4270;48.148;11.648;2023-03-31T06:55:53;11.17;;;5.53;;
8466;SDS011;4270;48.148;11.648;2023-03-31T06:58:18;6.40;;;5.47;;
8466;SDS011;4270;48.148;11.648;2023-03-31T07:00:43;6.63;;;4.47;;
8466;SDS011;4270;48.148;11.648;2023-03-31T07:03:10;10.13;;;5.73;;
8466;SDS011;4270;48.148;11.648;2023-03-31T07:05:35;12.20;;;5.43;;
8466;SDS011;4270;48.148;11.648;2023-03-31T07:08:00;13.55;;;6.03;;
8466;SDS011;4270;48.148;11.648;2023-03-31T07:10:27;5.67;;;5.10;;
8466;SDS011;4270;48.148;11.648;2023-03-31T07:12:52;8.33;;;6.63;;
8466;SDS011;4270;48.148;11.648;2023-03-31T07:15:17;7.47;;;5.07;;
8466;SDS011;4270;48.148;11.648;2023-03-31T07:17:43;11.83;;;5.47;;
8466;SDS011;4270;48.148;11.648;2023-03-31T07:20:09;11.57;;;6.50;;
8466;SDS011;4270;48.148;11.648;2023-03-31T07:22:37;10.80;;;6.67;;
8466;SDS011;4270;48.148;11.648;2023-03-31T07:25:02;10.20;;;6.57;;
8466;SDS011;4270;48.148;11.648;2023-03-31T07:27:27;9.77;;;6.20;;
8466;SDS011;4270;48.148;11.648;2023-03-31T07:29:53;7.07;;;5.45;;
8466;SDS011;4270;48.148;11.648;2023-03-31T07:32:19;11.20;;;6.90;;
8466;SDS011;4270;48.148;11.648;2023-03-31T07:34:46;11.93;;;5.63;;
8466;SDS011;4270;48.148;11.648;2023-03-31T07:37:11;11.98;;;6.20;;
8466;SDS011;4270;48.148;11.648;2023-03-31T07:39:36;8.20;;;5.72;;
8466;SDS011;4270;48.148;11.648;2023-03-31T07:42:01;9.90;;;6.27;;
8466;SDS011;4270;48.148;11.648;2023-03-31T07:44:26;6.83;;;5.90;;
8466;SDS011;4270;48.148;11.648;2023-03-31T07:46:51;10.17;;;6.67;;
8466;SDS011;4270;48.148;11.648;2023-03-31T07:49:17;8.48;;;6.85;;
8466;SDS011;4270;48.148;11.648;2023-03-31T07:51:42;9.30;;;6.57;;
8466;SDS011;4270;48.148;11.648;2023-03-31T07:54:07;10.88;;;7.13;;
8466;SDS011;4270;48.148;11.648;2023-03-31T07:56:32;9.48;;;6.43;;
8466;SDS011;4270;48.148;11.648;2023-03-31T07:58:57;10.10;;;7.17;;
8466;SDS011;4270;48.148;11.648;2023-03-31T08:01:22;10.03;;;6.70;;
8466;SDS011;4270;48.148;11.648;2023-03-31T08:03:49;9.87;;;6.53;;
8466;SDS011;4270;48.148;11.648;2023-03-31T08:06:20;13.90;;;7.37;;
8466;SDS011;4270;48.148;11.648;2023-03-31T08:08:45;8.90;;;7.23;;
8466;SDS011;4270;48.148;11.648;2023-03-31T08:11:11;12.20;;;6.50;;
8466;SDS011;4270;48.148;11.648;2023-03-31T08:13:36;11.80;;;6.97;;
8466;SDS011;4270;48.148;11.648;2023-03-31T08:16:02;8.07;;;6.40;;
8466;SDS011;4270;48.148;11.648;2023-03-31T08:18:27;9.83;;;6.70;;
8466;SDS011;4270;48.148;11.648;2023-03-31T08:20:52;9.50;;;7.43;;
8466;SDS011;4270;48.148;11.648;2023-03-31T08:23:17;11.73;;;6.43;;
8466;SDS011;4270;48.148;11.648;2023-03-31T08:25:42;11.07;;;6.60;;
8466;SDS011;4270;48.148;11.648;2023-03-31T08:28:08;7.30;;;6.23;;
8466;SDS011;4270;48.148;11.648;2023-03-31T08:30:37;9.73;;;6.20;;
8466;SDS011;4270;48.148;11.648;2023-03-31T08:33:03;11.77;;;6.77;;
8466;SDS011;4270;48.148;11.648;2023-03-31T08:35:28;13.43;;;6.40;;
8466;SDS011;4270;48.148;11.648;2023-03-31T08:37:53;9.60;;;6.60;;
8466;SDS011;4270;48.148;11.648;2023-03-31T08:40:19;10.43;;;6.47;;
8466;SDS011;4270;48.148;11.648;2023-03-31T08:42:48;10.33;;;8.07;;
8466;SDS011;4270;48.148;11.648;2023-03-31T08:45:20;9.13;;;6.23;;
8466;SDS011;4270;48.148;11.648;2023-03-31T08:47:46;11.23;;;6.57;;
8466;SDS011;4270;48.148;11.648;2023-03-31T08:50:14;8.67;;;6.53;;
8466;SDS011;4270;48.148;11.648;2023-03-31T08:52:41;12.00;;;6.73;;
8466;SDS011;4270;48.148;11.648;2023-03-31T08:55:11;8.40;;;5.40;;
8466;SDS011;4270;48.148;11.648;2023-03-31T09:00:12;7.60;;;4.10;;
8466;SDS011;4270;48.148;11.648;2023-03-31T09:02:42;5.93;;;4.13;;
8466;SDS011;4270;48.148;11.648;2023-03-31T09:05:28;5.63;;;4.40;;
8466;SDS011;4270;48.148;11.648;2023-03-31T09:10:34;6.30;;;4.40;;
8466;SDS011;4270;48.148;11.648;2023-03-31T09:13:06;6.93;;;3.43;;
8466;SDS011;4270;48.148;11.648;2023-03-31T09:18:15;4.87;;;3.60;;
8466;SDS011;4270;48.148;11.648;2023-03-31T09:20:42;5.83;;;3.90;;
8466;SDS011;4270;48.148;11.648;2023-03-31T09:23:21;6.50;;;3.40;;
8466;SDS011;4270;48.148;11.648;2023-03-31T09:25:48;9.13;;;3.90;;
8466;SDS011;4270;48.148;11.648;2023-03-31T09:28:21;4.30;;;3.40;;
8466;SDS011;4270;48.148;11.648;2023-03-31T09:30:47;4.23;;;3.80;;
8466;SDS011;4270;48.148;11.648;2023-03-31T09:33:18;5.30;;;3.83;;
8466;SDS011;4270;48.148;11.648;2023-03-31T09:35:46;4.90;;;4.37;;
8466;SDS011;4270;48.148;11.648;2023-03-31T09:38:12;5.10;;;3.40;;
8466;SDS011;4270;48.148;11.648;2023-03-31T09:40:39;5.43;;;3.33;;
8466;SDS011;4270;48.148;11.648;2023-03-31T09:43:05;5.13;;;3.93;;
8466;SDS011;4270;48.148;11.648;2023-03-31T09:45:31;4.97;;;4.17;;
8466;SDS011;4270;48.148;11.648;2023-03-31T09:47:58;5.80;;;3.60;;
8466;SDS011;4270;48.148;11.648;2023-03-31T09:50:25;5.90;;;3.67;;
8466;SDS011;4270;48.148;11.648;2023-03-31T09:55:31;3.43;;;3.10;;
8466;SDS011;4270;48.148;11.648;2023-03-31T09:57:59;6.30;;;4.00;;
8466;SDS011;4270;48.148;11.648;2023-03-31T10:00:24;4.67;;;3.70;;
8466;SDS011;4270;48.148;11.648;2023-03-31T10:02:52;3.73;;;3.43;;
8466;SDS011;4270;48.148;11.648;2023-03-31T10:05:46;3.67;;;3.27;;
8466;SDS011;4270;48.148;11.648;2023-03-31T10:10:50;2.50;;;2.20;;
8466;SDS011;4270;48.148;11.648;2023-03-31T10:13:18;3.67;;;3.00;;
8466;SDS011;4270;48.148;11.648;2023-03-31T10:15:44;4.37;;;3.30;;
8466;SDS011;4270;48.148;11.648;2023-03-31T10:18:13;3.50;;;2.77;;
8466;SDS011;4270;48.148;11.648;2023-03-31T10:20:43;5.13;;;2.70;;
8466;SDS011;4270;48.148;11.648;2023-03-31T10:23:28;3.47;;;3.13;;
8466;SDS011;4270;48.148;11.648;2023-03-31T10:25:54;5.30;;;4.17;;
8466;SDS011;4270;48.148;11.648;2023-03-31T10:28:20;5.50;;;2.93;;
8466;SDS011;4270;48.148;11.648;2023-03-31T10:30:46;4.37;;;2.87;;
8466;SDS011;4270;48.148;11.648;2023-03-31T10:33:13;4.73;;;3.03;;
8466;SDS011;4270;48.148;11.648;2023-03-31T10:35:39;4.83;;;2.90;;
8466;SDS011;4270;48.148;11.648;2023-03-31T10:38:06;4.10;;;3.00;;
8466;SDS011;4270;48.148;11.648;2023-03-31T10:40:32;3.97;;;2.60;;
8466;SDS011;4270;48.148;11.648;2023-03-31T10:45:25;3.43;;;2.50;;
8466;SDS011;4270;48.148;11.648;2023-03-31T10:47:52;4.40;;;2.60;;
8466;SDS011;4270;48.148;11.648;2023-03-31T10:50:17;3.90;;;3.17;;
8466;SDS011;4270;48.148;11.648;2023-03-31T10:52:44;4.45;;;3.40;;
8466;SDS011;4270;48.148;11.648;2023-03-31T10:55:23;5.53;;;3.43;;
8466;SDS011;4270;48.148;11.648;2023-03-31T10:57:55;3.83;;;2.57;;
8466;SDS011;4270;48.148;11.648;2023-03-31T11:00:26;4.90;;;3.30;;
8466;SDS011;4270;48.148;11.648;2023-03-31T11:08:30;3.37;;;3.07;;
8466;SDS011;4270;48.148;11.648;2023-03-31T11:13:47;5.20;;;3.20;;
8466;SDS011;4270;48.148;11.648;2023-03-31T11:16:24;4.80;;;3.30;;
8466;SDS011;4270;48.148;11.648;2023-03-31T11:21:23;5.43;;;3.10;;
8466;SDS011;4270;48.148;11.648;2023-03-31T11:26:36;3.80;;;3.40;;
8466;SDS011;4270;48.148;11.648;2023-03-31T11:36:55;2.83;;;1.00;;
8466;SDS011;4270;48.148;11.648;2023-03-31T11:41:52;1.60;;;1.07;;
8466;SDS011;4270;48.148;11.648;2023-03-31T11:44:19;2.17;;;1.50;;
8466;SDS011;4270;48.148;11.648;2023-03-31T11:46:47;1.30;;;0.90;;
8466;SDS011;4270;48.148;11.648;2023-03-31T11:49:17;3.03;;;1.00;;
8466;SDS011;4270;48.148;11.648;2023-03-31T11:54:09;1.90;;;1.05;;
8466;SDS011;4270;48.148;11.648;2023-03-31T11:56:40;3.03;;;1.20;;
8466;SDS011;4270;48.148;11.648;2023-03-31T11:59:05;3.07;;;1.67;;
8466;SDS011;4270;48.148;11.648;2023-03-31T12:04:04;3.83;;;1.33;;
8466;SDS011;4270;48.148;11.648;2023-03-31T12:06:32;1.90;;;1.40;;
8466;SDS011;4270;48.148;11.648;2023-03-31T12:16:53;2.33;;;1.40;;
8466;SDS011;4270;48.148;11.648;2023-03-31T12:19:32;1.97;;;1.10;;
8466;SDS011;4270;48.148;11.648;2023-03-31T12:24:36;1.77;;;1.63;;
8466;SDS011;4270;48.148;11.648;2023-03-31T12:27:04;2.70;;;1.37;;
8466;SDS011;4270;48.148;11.648;2023-03-31T12:29:34;2.70;;;1.40;;
8466;SDS011;4270;48.148;11.648;2023-03-31T12:32:01;2.13;;;1.03;;
8466;SDS011;4270;48.148;11.648;2023-03-31T12:34:27;3.00;;;1.23;;
8466;SDS011;4270;48.148;11.648;2023-03-31T12:44:38;4.97;;;1.63;;
8466;SDS011;4270;48.148;11.648;2023-03-31T12:52:29;5.83;;;1.80;;
8466;SDS011;4270;48.148;11.648;2023-03-31T12:57:34;4.20;;;2.10;;
8466;SDS011;4270;48.148;11.648;2023-03-31T13:00:19;4.33;;;1.80;;
8466;SDS011;4270;48.148;11.648;2023-03-31T13:02:45;3.77;;;1.90;;
8466;SDS011;4270;48.148;11.648;2023-03-31T13:07:54;4.23;;;1.83;;
8466;SDS011;4270;48.148;11.648;2023-03-31T13:10:26;1.80;;;1.53;;
8466;SDS011;4270;48.148;11.648;2023-03-31T13:13:03;2.37;;;1.40;;
8466;SDS011;4270;48.148;11.648;2023-03-31T13:15:28;1.60;;;1.20;;
8466;SDS011;4270;48.148;11.648;2023-03-31T13:18:04;2.50;;;1.50;;
8466;SDS011;4270;48.148;11.648;2023-03-31T13:20:36;2.40;;;0.80;;
8466;SDS011;4270;48.148;11.648;2023-03-31T13:23:23;2.10;;;0.70;;
8466;SDS011;4270;48.148;11.648;2023-03-31T13:25:49;3.40;;;1.33;;
8466;SDS011;4270;48.148;11.648;2023-03-31T13:30:59;1.73;;;0.83;;
8466;SDS011;4270;48.148;11.648;2023-03-31T13:33:42;1.67;;;0.70;;
8466;SDS011;4270;48.148;11.648;2023-03-31T13:38:35;2.90;;;0.95;;
8466;SDS011;4270;48.148;11.648;2023-03-31T13:51:33;2.03;;;0.70;;
8466;SDS011;4270;48.148;11.648;2023-03-31T13:54:18;2.37;;;0.77;;
8466;SDS011;4270;48.148;11.648;2023-03-31T13:56:57;1.90;;;0.90;;
8466;SDS011;4270;48.148;11.648;2023-03-31T14:02:04;2.40;;;0.80;;
8466;SDS011;4270;48.148;11.648;2023-03-31T14:04:39;0.90;;;0.90;;
8466;SDS011;4270;48.148;11.648;2023-03-31T14:07:17;1.43;;;0.77;;
8466;SDS011;4270;48.148;11.648;2023-03-31T14:09:45;2.03;;;0.87;;
8466;SDS011;4270;48.148;11.648;2023-03-31T14:12:30;3.30;;;0.83;;
8466;SDS011;4270;48.148;11.648;2023-03-31T14:14:56;2.40;;;1.20;;
8466;SDS011;4270;48.148;11.648;2023-03-31T14:17:32;3.23;;;1.00;;
8466;SDS011;4270;48.148;11.648;2023-03-31T14:20:17;2.43;;;0.80;;
8466;SDS011;4270;48.148;11.648;2023-03-31T14:22:57;0.73;;;0.50;;
8466;SDS011;4270;48.148;11.648;2023-03-31T14:27:57;2.90;;;0.73;;
8466;SDS011;4270;48.148;11.648;2023-03-31T14:30:29;1.33;;;0.80;;
8466;SDS011;4270;48.148;11.648;2023-03-31T14:36:27;3.10;;;1.10;;
8466;SDS011;4270;48.148;11.648;2023-03-31T14:38:21;3.27;;;1.00;;
8466;SDS011;4270;48.148;11.648;2023-03-31T14:40:48;2.43;;;1.10;;
8466;SDS011;4270;48.148;11.648;2023-03-31T14:43:18;2.60;;;1.10;;
8466;SDS011;4270;48.148;11.648;2023-03-31T14:45:44;6.43;;;1.67;;
8466;SDS011;4270;48.148;11.648;2023-03-31T14:48:10;2.00;;;1.23;;
8466;SDS011;4270;48.148;11.648;2023-03-31T14:50:37;1.53;;;0.63;;
8466;SDS011;4270;48.148;11.648;2023-03-31T14:53:11;6.23;;;1.70;;
8466;SDS011;4270;48.148;11.648;2023-03-31T14:55:37;3.10;;;0.90;;
8466;SDS011;4270;48.148;11.648;2023-03-31T14:58:02;0.60;;;0.60;;
8466;SDS011;4270;48.148;11.648;2023-03-31T15:00:29;1.70;;;0.73;;
8466;SDS011;4270;48.148;11.648;2023-03-31T15:02:55;1.90;;;0.60;;
8466;SDS011;4270;48.148;11.648;2023-03-31T15:05:30;2.00;;;0.80;;
8466;SDS011;4270;48.148;11.648;2023-03-31T15:07:57;2.27;;;1.83;;
8466;SDS011;4270;48.148;11.648;2023-03-31T15:10:23;1.47;;;0.70;;
8466;SDS011;4270;48.148;11.648;2023-03-31T15:12:48;1.30;;;0.90;;
8466;SDS011;4270;48.148;11.648;2023-03-31T15:15:14;1.20;;;0.83;;
8466;SDS011;4270;48.148;11.648;2023-03-31T15:17:41;0.77;;;0.50;;
8466;SDS011;4270;48.148;11.648;2023-03-31T15:22:45;2.07;;;1.00;;
8466;SDS011;4270;48.148;11.648;2023-03-31T15:25:13;3.13;;;1.50;;
8466;SDS011;4270;48.148;11.648;2023-03-31T15:27:42;2.70;;;1.00;;
8466;SDS011;4270;48.148;11.648;2023-03-31T15:30:13;1.47;;;0.80;;
8466;SDS011;4270;48.148;11.648;2023-03-31T15:32:38;3.77;;;0.80;;
8466;SDS011;4270;48.148;11.648;2023-03-31T15:35:05;5.83;;;1.03;;
8466;SDS011;4270;48.148;11.648;2023-03-31T15:37:35;3.73;;;1.03;;
8466;SDS011;4270;48.148;11.648;2023-03-31T15:40:02;1.37;;;0.97;;
8466;SDS011;4270;48.148;11.648;2023-03-31T15:42:33;1.47;;;0.70;;
8466;SDS011;4270;48.148;11.648;2023-03-31T15:45:23;2.20;;;0.97;;
8466;SDS011;4270;48.148;11.648;2023-03-31T15:47:56;1.17;;;0.90;;
8466;SDS011;4270;48.148;11.648;2023-03-31T15:50:24;2.87;;;1.00;;
8466;SDS011;4270;48.148;11.648;2023-03-31T15:52:52;3.40;;;1.13;;
8466;SDS011;4270;48.148;11.648;2023-03-31T15:55:23;7.13;;;1.50;;
8466;SDS011;4270;48.148;11.648;2023-03-31T15:57:54;3.20;;;1.03;;
8466;SDS011;4270;48.148;11.648;2023-03-31T16:02:57;1.63;;;0.80;;
8466;SDS011;4270;48.148;11.648;2023-03-31T16:07:55;1.60;;;0.80;;
8466;SDS011;4270;48.148;11.648;2023-03-31T16:10:21;1.80;;;0.80;;
8466;SDS011;4270;48.148;11.648;2023-03-31T16:15:16;4.20;;;1.37;;
8466;SDS011;4270;48.148;11.648;2023-03-31T16:17:50;3.50;;;1.40;;
8466;SDS011;4270;48.148;11.648;2023-03-31T16:20:20;2.00;;;0.87;;
8466;SDS011;4270;48.148;11.648;2023-03-31T16:22:47;2.70;;;0.90;;
8466;SDS011;4270;48.148;11.648;2023-03-31T16:25:15;3.97;;;1.30;;
8466;SDS011;4270;48.148;11.648;2023-03-31T16:27:42;2.33;;;1.27;;
8466;SDS011;4270;48.148;11.648;2023-03-31T16:30:15;2.60;;;0.90;;
8466;SDS011;4270;48.148;11.648;2023-03-31T16:32:57;1.53;;;1.00;;
8466;SDS011;4270;48.148;11.648;2023-03-31T16:35:22;6.43;;;1.57;;
8466;SDS011;4270;48.148;11.648;2023-03-31T16:37:48;2.33;;;1.40;;
8466;SDS011;4270;48.148;11.648;2023-03-31T16:40:17;2.80;;;1.50;;
8466;SDS011;4270;48.148;11.648;2023-03-31T16:42:42;2.87;;;1.20;;
8466;SDS011;4270;48.148;11.648;2023-03-31T16:45:07;2.80;;;1.30;;
8466;SDS011;4270;48.148;11.648;2023-03-31T16:47:33;5.03;;;1.60;;
8466;SDS011;4270;48.148;11.648;2023-03-31T16:49:58;2.35;;;1.88;;
8466;SDS011;4270;48.148;11.648;2023-03-31T16:52:23;2.65;;;1.40;;
8466;SDS011;4270;48.148;11.648;2023-03-31T16:54:48;2.20;;;1.10;;
8466;SDS011;4270;48.148;11.648;2023-03-31T16:57:13;2.25;;;1.30;;
8466;SDS011;4270;48.148;11.648;2023-03-31T16:59:39;3.30;;;1.40;;
8466;SDS011;4270;48.148;11.648;2023-03-31T17:02:04;2.57;;;1.27;;
8466;SDS011;4270;48.148;11.648;2023-03-31T17:04:29;4.13;;;0.80;;
8466;SDS011;4270;48.148;11.648;2023-03-31T17:06:54;0.80;;;0.60;;
8466;SDS011;4270;48.148;11.648;2023-03-31T17:09:20;3.90;;;0.80;;
8466;SDS011;4270;48.148;11.648;2023-03-31T17:11:45;1.02;;;0.60;;
8466;SDS011;4270;48.148;11.648;2023-03-31T17:14:12;0.50;;;0.40;;
8466;SDS011;4270;48.148;11.648;2023-03-31T17:16:37;2.15;;;0.50;;
8466;SDS011;4270;48.148;11.648;2023-03-31T17:19:03;1.73;;;0.63;;
8466;SDS011;4270;48.148;11.648;2023-03-31T17:21:28;1.75;;;0.68;;
8466;SDS011;4270;48.148;11.648;2023-03-31T17:23:53;1.90;;;0.70;;
8466;SDS011;4270;48.148;11.648;2023-03-31T17:26:18;0.93;;;0.40;;